Korolev, Russia
Current Conditions -  °F | °C
As of 7:00 PM on Sunday 23 Nov 2014 (Local Time) from UUEE Reporting Station
Light Snow Light Snow  
Wind Chill: 23°   Ceiling: 1500
Heat Index: 28°   Visibility: 6mi
Dew Point: 27°   Wind: 4mph
Humidity: 93%   Direction: NA
Pressure: 30.53"   Gusts: NA
Location:  55.93°N, 37.77°E
Report Text: UUEE 231600Z VRB02MPS 9000 -SN OVC015 M02/M03 Q1034 0700006257120057 NOSIG
Loading
Personal Weather Stations






























Interactive Weather Map New forecast layout! Learn more

10-Day Weather Forecast

Advertisements
Track Severe Weather on mobile